KARG

Walnut Ridge Regional Airport

Walnut Ridge, Arkansas, USA
METAR KARG 220456Z AUTO 23007KT 10SM 24/19 A2974 RMK AO2 SLP070 T02440189 403060211 $
Observed Flight Rules
Jun-22 @ 04:56 UTC (54 minutes ago)
Wind Visibility
230° at 7 knots 10 miles
Temperatures Readings
Current 24°C / 75°F
Dewpoint 19°C / 66°F
Humidity 74%
Altimeter 29.74" Hg
Pressure 1007 hPa
Elevation 83
METAR KARG 220456Z AUTO 23007KT 10SM 24/19 A2974 RMK AO2 SLP070 T02440189 403060211 $
Observed Flight Rules
Jun-22 @ 04:56 UTC
(54 minutes ago)
Wind Visibility
230° at 7 knots 10 miles
Temperature Dewpoint
24°C / 75°F 19°C / 66°F
Humidity Altimeter Pressure
74% 29.74" Hg 1007 hPa